Time;durP1;ratioP1;P1;durP2;ratioP2;P2;SDS_P1;SDS_P2;PMS_P1;PMS_P2;Temp;Humidity;BMP_temperature;BMP_pressure;BME280_temperature;BME280_humidity;BME280_pressure;Samples;Min_cycle;Max_cycle;Signal;HPM_P1;HPM_P2
2022/09/03 00:04:28;;;;;;;2.87;2.20;;;;;17.70;98480.00;;;;16642887;28;20269;-78
2022/09/03 00:12:38;;;;;;;3.10;2.80;;;;;17.70;98472.00;;;;16657466;28;20230;-78
2022/09/03 00:20:42;;;;;;;2.90;2.20;;;;;17.90;98460.00;;;;16658692;28;20509;-78
2022/09/03 00:28:50;;;;;;;2.93;2.30;;;;;18.20;98460.00;;;;16653372;28;20595;-78
2022/09/03 00:36:52;;;;;;;2.80;2.33;;;;;18.50;98457.00;;;;16648237;28;20844;-77
2022/09/03 00:45:03;;;;;;;2.47;2.10;;;;;18.60;98463.00;;;;16661323;28;20308;-78
2022/09/03 00:53:13;;;;;;;2.77;2.30;;;;;18.60;98457.00;;;;16737374;22;20263;-47
2022/09/03 01:01:22;;;;;;;4.00;2.30;;;;;18.60;98457.00;;;;16703452;28;20296;-48
2022/09/03 01:09:37;;;;;;;3.07;2.30;;;;;18.50;98460.00;;;;16675150;28;20222;-48
2022/09/03 01:17:57;;;;;;;2.30;2.10;;;;;18.80;98458.00;;;;16657263;28;20298;-48
2022/09/03 01:26:10;;;;;;;2.70;2.50;;;;;19.20;98460.00;;;;16655307;28;20226;-48
2022/09/03 01:34:24;;;;;;;2.67;1.63;;;;;18.70;98456.00;;;;16661354;28;20225;-48
2022/09/03 01:42:33;;;;;;;2.17;2.00;;;;;19.00;98458.00;;;;16696203;28;20300;-48
2022/09/03 01:50:43;;;;;;;3.60;1.90;;;;;19.00;98463.00;;;;16719799;28;20735;-48
2022/09/03 01:58:55;;;;;;;2.03;1.93;;;;;18.70;98473.00;;;;16692371;28;20217;-48
2022/09/03 02:07:00;;;;;;;2.33;2.13;;;;;19.00;98465.00;;;;16680430;28;20226;-48
2022/09/03 02:15:05;;;;;;;2.83;2.00;;;;;18.80;98473.00;;;;16715130;28;20221;-48
2022/09/03 02:23:09;;;;;;;2.10;1.90;;;;;18.80;98477.00;;;;16716087;28;20197;-48
2022/09/03 02:31:11;;;;;;;3.67;2.63;;;;;19.10;98485.00;;;;16717994;28;20235;-48
2022/09/03 02:39:16;;;;;;;4.00;2.40;;;;;19.50;98475.00;;;;16703898;28;20225;-48
2022/09/03 02:47:19;;;;;;;2.80;2.50;;;;;19.20;98472.00;;;;16716964;28;20213;-49
2022/09/03 02:55:23;;;;;;;4.10;2.13;;;;;18.80;98465.00;;;;16712228;28;20218;-48
2022/09/03 03:03:26;;;;;;;5.23;2.27;;;;;19.00;98467.00;;;;16658250;28;20308;-49
2022/09/03 03:11:29;;;;;;;2.70;2.50;;;;;18.70;98478.00;;;;16707897;28;20779;-49
2022/09/03 03:19:32;;;;;;;2.60;2.20;;;;;18.90;98479.00;;;;16716366;28;20279;-49
2022/09/03 03:27:41;;;;;;;2.80;2.23;;;;;18.20;98486.00;;;;16718062;28;20276;-49
2022/09/03 03:35:43;;;;;;;4.30;2.37;;;;;17.90;98486.00;;;;16714973;28;20214;-48
2022/09/03 03:43:47;;;;;;;2.70;2.50;;;;;17.80;98486.00;;;;16728343;28;20587;-49
2022/09/03 03:51:50;;;;;;;2.60;2.17;;;;;17.80;98490.00;;;;16727188;28;20321;-49
2022/09/03 03:59:53;;;;;;;2.50;2.30;;;;;18.10;98496.00;;;;16727004;28;20224;-49
2022/09/03 04:07:56;;;;;;;2.73;2.53;;;;;18.00;98494.00;;;;16709429;22;20234;-50
2022/09/03 04:16:04;;;;;;;3.40;3.10;;;;;18.50;98490.00;;;;16700651;28;20699;-50
2022/09/03 04:24:07;;;;;;;6.07;2.63;;;;;18.80;98487.00;;;;16647270;28;20229;-50
2022/09/03 04:40:31;;;;;;;2.73;2.53;;;;;17.70;98503.00;;;;16641616;28;20871;-49
2022/09/03 04:48:36;;;;;;;3.43;3.13;;;;;17.70;98498.00;;;;16651326;28;20312;-50
2022/09/03 04:56:40;;;;;;;3.73;3.10;;;;;17.80;98497.00;;;;16629292;28;20261;-49
2022/09/03 05:04:43;;;;;;;3.43;3.17;;;;;17.70;98496.00;;;;16600865;28;20265;-50
2022/09/03 05:12:48;;;;;;;3.83;3.40;;;;;17.80;98499.00;;;;16649635;28;20207;-49
2022/09/03 05:21:00;;;;;;;3.00;2.70;;;;;17.80;98502.00;;;;16650501;28;20618;-49
2022/09/03 05:29:04;;;;;;;6.13;3.40;;;;;18.30;98496.00;;;;16630228;28;20230;-49
2022/09/03 05:37:08;;;;;;;3.50;3.20;;;;;17.90;98498.00;;;;16657665;28;20213;-49
2022/09/03 05:45:12;;;;;;;3.30;3.07;;;;;18.20;98495.00;;;;16656149;28;20214;-49
2022/09/03 05:53:17;;;;;;;3.53;3.23;;;;;18.60;98504.00;;;;16649829;28;20241;-50
2022/09/03 06:01:21;;;;;;;4.07;3.20;;;;;19.10;98502.00;;;;16641486;28;20219;-49
2022/09/03 06:09:24;;;;;;;4.13;3.50;;;;;19.20;98513.00;;;;16506412;28;20228;-49
2022/09/03 06:17:27;;;;;;;3.63;3.33;;;;;19.90;98515.00;;;;16524249;28;20280;-50
2022/09/03 06:25:31;;;;;;;3.17;2.80;;;;;20.30;98512.00;;;;16594017;28;20227;-50
2022/09/03 06:33:34;;;;;;;3.10;2.90;;;;;20.30;98513.00;;;;16653608;28;20672;-50
2022/09/03 06:41:38;;;;;;;4.80;3.43;;;;;20.30;98524.00;;;;16654015;28;20626;-48
2022/09/03 06:49:41;;;;;;;4.07;3.00;;;;;20.40;98524.00;;;;16637235;28;20231;-50
2022/09/03 06:57:45;;;;;;;5.70;3.13;;;;;20.60;98523.00;;;;16620404;28;20309;-49
2022/09/03 07:05:47;;;;;;;3.33;3.03;;;;;20.80;98523.00;;;;16648227;28;20226;-49
2022/09/03 07:13:52;;;;;;;3.13;2.93;;;;;20.90;98522.00;;;;16657263;28;20725;-50
2022/09/03 07:21:54;;;;;;;3.50;3.20;;;;;21.00;98524.00;;;;16665567;28;20242;-49
2022/09/03 07:29:58;;;;;;;5.20;3.53;;;;;21.30;98524.00;;;;16648086;28;20724;-50
2022/09/03 07:38:01;;;;;;;3.70;3.40;;;;;21.30;98529.00;;;;16664345;28;20310;-50
2022/09/03 07:46:05;;;;;;;4.57;3.50;;;;;21.70;98526.00;;;;16663522;28;20260;-50
2022/09/03 07:54:09;;;;;;;3.63;3.07;;;;;22.10;98528.00;;;;16656319;28;20225;-50
2022/09/03 08:02:13;;;;;;;3.70;3.33;;;;;22.50;98542.00;;;;16644225;28;20361;-50
2022/09/03 08:10:16;;;;;;;4.27;3.80;;;;;22.60;98527.00;;;;16623704;28;20246;-50
2022/09/03 08:18:21;;;;;;;4.40;3.83;;;;;22.80;98542.00;;;;16595793;28;20235;-51
2022/09/03 08:26:24;;;;;;;3.50;3.20;;;;;22.80;98540.00;;;;16611717;28;20235;-49
2022/09/03 08:34:27;;;;;;;3.90;3.57;;;;;23.40;98541.00;;;;16661418;28;20592;-50
2022/09/03 08:42:45;;;;;;;4.40;4.10;;;;;24.10;98540.00;;;;16660886;28;20286;-51
2022/09/03 08:50:54;;;;;;;4.93;3.70;;;;;24.50;98543.00;;;;16646836;28;20222;-50
2022/09/03 08:58:57;;;;;;;6.67;3.13;;;;;24.90;98553.00;;;;16644356;28;20688;-51
2022/09/03 09:07:07;;;;;;;4.30;3.50;;;;;25.20;98550.00;;;;16650220;28;20321;-51
2022/09/03 09:15:14;;;;;;;4.07;3.77;;;;;26.10;98552.00;;;;16650141;28;20613;-51
2022/09/03 09:23:24;;;;;;;4.13;3.83;;;;;26.20;98561.00;;;;16652886;28;20294;-50
2022/09/03 09:31:29;;;;;;;3.73;3.43;;;;;26.10;98564.00;;;;16600136;28;20219;-51
2022/09/03 09:39:33;;;;;;;9.13;4.10;;;;;25.20;98558.00;;;;16591409;28;20229;-50
2022/09/03 09:47:39;;;;;;;4.50;4.10;;;;;26.00;98555.00;;;;16590770;28;20231;-51
2022/09/03 09:55:56;;;;;;;4.97;4.57;;;;;26.90;98543.00;;;;16599679;28;20214;-51
2022/09/03 10:12:13;;;;;;;6.77;4.43;;;;;25.90;98554.00;;;;16536475;28;20238;-79
2022/09/03 10:20:32;;;;;;;4.77;4.20;;;;;25.70;98558.00;;;;16558682;28;20208;-79
2022/09/03 10:28:40;;;;;;;4.53;4.23;;;;;26.70;98561.00;;;;16563861;28;20231;-79
2022/09/03 10:36:49;;;;;;;6.00;3.90;;;;;26.60;98552.00;;;;16614805;28;20198;-79
2022/09/03 10:45:02;;;;;;;4.60;4.30;;;;;26.60;98542.00;;;;16614715;28;20728;-79
2022/09/03 10:53:14;;;;;;;4.77;4.37;;;;;27.50;98556.00;;;;16598731;28;20755;-80
2022/09/03 11:01:24;;;;;;;5.30;4.80;;;;;26.40;98543.00;;;;16583071;28;20207;-79
2022/09/03 11:09:31;;;;;;;4.10;3.80;;;;;27.10;98531.00;;;;16607962;28;20223;-79
2022/09/03 11:17:38;;;;;;;4.67;4.23;;;;;27.40;98531.00;;;;16611927;28;20242;-78
2022/09/03 11:25:44;;;;;;;5.27;4.73;;;;;26.90;98511.00;;;;16578528;28;20231;-79
2022/09/03 11:33:52;;;;;;;4.10;3.80;;;;;27.00;98508.00;;;;16583716;28;20226;-78
2022/09/03 11:42:05;;;;;;;5.00;4.60;;;;;26.50;98504.00;;;;16564809;28;20227;-79
2022/09/03 11:50:19;;;;;;;4.73;4.43;;;;;26.50;98505.00;;;;16580672;28;20246;-79
2022/09/03 11:58:26;;;;;;;4.40;4.00;;;;;26.40;98530.00;;;;16604015;28;20220;-78
2022/09/03 12:06:50;;;;;;;5.07;4.40;;;;;25.90;98559.00;;;;16556391;28;20238;-78
2022/09/03 12:14:57;;;;;;;4.67;4.37;;;;;25.30;98567.00;;;;16536626;28;20216;-78
2022/09/03 12:23:02;;;;;;;7.80;7.10;;;;;25.20;98563.00;;;;16536040;28;20216;-78
2022/09/03 12:31:20;;;;;;;2.63;1.93;;;;;23.20;98610.00;;;;16537659;28;20220;-78
2022/09/03 12:39:25;;;;;;;2.00;1.83;;;;;22.30;98619.00;;;;16594413;28;20226;-78
2022/09/03 12:47:27;;;;;;;2.00;1.70;;;;;21.70;98635.00;;;;16579362;28;20968;-78
2022/09/03 12:55:35;;;;;;;4.13;1.90;;;;;21.70;98642.00;;;;16656606;22;20312;-47
2022/09/03 13:03:45;;;;;;;2.53;2.23;;;;;21.40;98651.00;;;;16608596;28;20314;-47
2022/09/03 13:11:51;;;;;;;3.60;2.50;;;;;20.80;98660.00;;;;16616665;28;20227;-48
2022/09/03 13:20:12;;;;;;;3.53;2.17;;;;;21.40;98658.00;;;;16657031;28;20276;-48
2022/09/03 13:28:26;;;;;;;6.63;2.70;;;;;21.00;98650.00;;;;16623888;28;20219;-48
2022/09/03 13:36:31;;;;;;;3.23;2.27;;;;;21.40;98641.00;;;;16589142;28;20567;-47
2022/09/03 13:44:42;;;;;;;4.73;2.70;;;;;21.80;98640.00;;;;16654866;28;20225;-47
2022/09/03 13:52:51;;;;;;;2.97;2.30;;;;;22.20;98643.00;;;;16654378;28;20348;-48
2022/09/03 14:01:08;;;;;;;8.73;2.57;;;;;24.60;98608.00;;;;16620601;28;20309;-48
2022/09/03 14:09:15;;;;;;;3.43;1.73;;;;;26.20;98593.00;;;;16642029;28;20241;-49
2022/09/03 14:17:28;;;;;;;3.03;2.20;;;;;26.40;98596.00;;;;16653785;28;20304;-48
2022/09/03 14:25:32;;;;;;;2.43;2.23;;;;;25.60;98586.00;;;;16653174;28;20268;-48
2022/09/03 14:33:43;;;;;;;2.10;1.87;;;;;26.20;98589.00;;;;16644265;28;20304;-48
2022/09/03 14:41:57;;;;;;;3.33;1.97;;;;;26.10;98588.00;;;;16645658;28;20264;-48
2022/09/03 14:50:24;;;;;;;3.97;2.03;;;;;24.90;98580.00;;;;16651329;28;20664;-48
2022/09/03 14:58:37;;;;;;;3.10;2.10;;;;;26.30;98585.00;;;;16634983;28;20236;-48
2022/09/03 15:06:51;;;;;;;1.73;1.27;;;;;29.20;98569.00;;;;16619883;28;20326;-48
2022/09/03 15:14:55;;;;;;;1.17;0.90;;;;;30.20;98560.00;;;;16629641;28;20218;-48
2022/09/03 15:23:19;;;;;;;1.80;1.50;;;;;28.20;98561.00;;;;16652508;28;20611;-48
2022/09/03 15:31:26;;;;;;;1.70;1.40;;;;;27.90;98567.00;;;;16656784;28;20238;-48
2022/09/03 15:39:33;;;;;;;1.83;1.10;;;;;28.40;98562.00;;;;16649906;28;20222;-48
2022/09/03 15:47:43;;;;;;;2.57;1.00;;;;;31.00;98565.00;;;;16664168;28;20211;-49
2022/09/03 15:55:48;;;;;;;2.43;1.40;;;;;31.00;98565.00;;;;16645790;28;20593;-49
2022/09/03 16:04:08;;;;;;;1.23;1.13;;;;;27.00;98581.00;;;;16603886;28;20235;-47
2022/09/03 16:12:20;;;;;;;1.60;1.50;;;;;28.50;98578.00;;;;16707081;22;20230;-83
2022/09/03 16:20:25;;;;;;;1.70;1.30;;;;;29.20;98587.00;;;;16671907;28;20238;-84
2022/09/03 16:28:32;;;;;;;2.70;1.53;;;;;28.40;98588.00;;;;16676656;28;20296;-84
2022/09/03 16:36:43;;;;;;;2.30;2.10;;;;;25.60;98587.00;;;;16686947;28;20216;-84
2022/09/03 16:45:04;;;;;;;2.80;2.00;;;;;25.50;98586.00;;;;16738154;28;20296;-80
2022/09/03 16:53:10;;;;;;;4.43;4.03;;;;;23.90;98609.00;;;;16726372;28;20270;-84
2022/09/03 17:01:35;;;;;;;4.20;3.80;;;;;23.70;98607.00;;;;16744532;28;20213;-84
2022/09/03 17:09:47;;;;;;;3.80;3.20;;;;;25.60;98606.00;;;;16724689;28;20903;-84
2022/09/03 17:18:11;;;;;;;3.33;2.60;;;;;25.30;98599.00;;;;16742360;28;20226;-84
2022/09/03 17:26:25;;;;;;;4.60;4.00;;;;;24.20;98610.00;;;;16735057;28;20233;-83
2022/09/03 17:34:38;;;;;;;4.83;4.43;;;;;23.10;98611.00;;;;16720826;28;20244;-83
2022/09/03 17:42:49;;;;;;;4.73;3.00;;;;;22.90;98620.00;;;;16611395;28;20216;-83
2022/09/03 17:50:57;;;;;;;3.70;2.73;;;;;22.40;98632.00;;;;16626423;28;20258;-83
2022/09/03 17:59:06;;;;;;;3.17;2.90;;;;;22.00;98654.00;;;;16675475;28;20310;-84
2022/09/03 18:07:16;;;;;;;4.30;4.00;;;;;21.30;98668.00;;;;16700822;28;20275;-83
2022/09/03 18:15:21;;;;;;;5.87;4.40;;;;;21.30;98679.00;;;;16737857;28;20214;-83
2022/09/03 20:12:47;;;;;;;3.70;3.40;;;;;19.40;98754.00;;;;16657749;28;20214;-49
2022/09/03 20:20:56;;;;;;;4.97;3.90;;;;;19.60;98752.00;;;;16647778;28;20568;-50
2022/09/03 20:29:22;;;;;;;4.70;4.30;;;;;19.20;98745.00;;;;16596061;28;20590;-52
2022/09/03 20:37:34;;;;;;;3.90;3.57;;;;;19.40;98760.00;;;;16599065;28;20592;-52
2022/09/03 20:45:49;;;;;;;3.93;3.60;;;;;19.00;98773.00;;;;16621898;28;20234;-52
2022/09/03 20:54:07;;;;;;;4.43;3.50;;;;;19.60;98784.00;;;;16651534;28;20280;-49
2022/09/03 21:02:19;;;;;;;4.90;4.40;;;;;19.20;98786.00;;;;16640783;28;20222;-50
2022/09/03 21:10:30;;;;;;;5.67;3.20;;;;;19.90;98784.00;;;;16645400;28;20682;-46
2022/09/03 21:18:38;;;;;;;7.33;6.63;;;;;20.00;98777.00;;;;16658299;28;20310;-47
2022/09/03 21:26:45;;;;;;;6.40;4.47;;;;;19.60;98788.00;;;;16657042;28;20316;-47
2022/09/03 21:34:54;;;;;;;4.57;4.17;;;;;20.20;98785.00;;;;16597763;28;20386;-46
2022/09/03 21:43:04;;;;;;;3.57;3.27;;;;;19.40;98780.00;;;;16591471;28;20721;-48
2022/09/03 21:51:09;;;;;;;4.67;4.00;;;;;19.40;98799.00;;;;16590312;28;20227;-49
2022/09/03 21:59:30;;;;;;;4.20;3.83;;;;;19.70;98807.00;;;;16589801;28;20207;-48
2022/09/03 22:07:45;;;;;;;4.40;3.83;;;;;19.30;98827.00;;;;16620667;22;20327;-48
2022/09/03 22:15:50;;;;;;;4.37;3.97;;;;;19.70;98834.00;;;;16648678;28;20725;-48
2022/09/03 22:24:07;;;;;;;11.40;9.77;;;;;21.20;98822.00;;;;16579479;28;20222;-48
2022/09/03 22:32:22;;;;;;;8.37;7.53;;;;;22.00;98805.00;;;;16594438;28;20296;-48
2022/09/03 22:40:29;;;;;;;7.43;3.27;;;;;21.30;98800.00;;;;16586549;28;20370;-48
2022/09/03 22:48:50;;;;;;;4.27;3.40;;;;;21.10;98819.00;;;;16586722;28;20228;-48
2022/09/03 22:56:53;;;;;;;4.87;3.90;;;;;20.90;98822.00;;;;16585954;28;20353;-48
2022/09/03 23:05:03;;;;;;;3.83;3.43;;;;;20.40;98831.00;;;;16621690;28;20294;-48
2022/09/03 23:13:09;;;;;;;5.40;3.70;;;;;20.10;98826.00;;;;16633059;28;20607;-48
2022/09/03 23:21:22;;;;;;;3.47;3.07;;;;;20.60;98835.00;;;;16619934;28;20226;-49
2022/09/03 23:29:27;;;;;;;5.30;2.90;;;;;19.30;98839.00;;;;16605801;28;20234;-48
2022/09/03 23:37:42;;;;;;;7.27;3.30;;;;;19.50;98841.00;;;;16605185;28;20231;-48
2022/09/03 23:45:52;;;;;;;5.43;3.70;;;;;19.10;98846.00;;;;16625993;28;20716;-48
2022/09/03 23:54:06;;;;;;;3.20;2.90;;;;;19.00;98850.00;;;;16599571;28;20726;-48
